createdAt,value
2019-03-19T00:00:58.874Z,101073.81
2019-03-19T00:06:01.392Z,101076.80
2019-03-19T00:11:05.484Z,101079.61
2019-03-19T00:13:33.974Z,101073.03
2019-03-19T00:16:21.675Z,101080.78
2019-03-19T00:21:43.169Z,101091.95
2019-03-19T00:24:11.620Z,101094.22
2019-03-19T00:29:13.774Z,101085.55
2019-03-19T00:32:01.384Z,101085.81
2019-03-19T00:34:29.835Z,101089.88
2019-03-19T00:36:58.298Z,101092.05
2019-03-19T00:39:26.778Z,101090.39
2019-03-19T00:41:55.233Z,101094.19
2019-03-19T00:44:23.669Z,101098.04
2019-03-19T00:46:52.152Z,101092.25
2019-03-19T00:49:20.605Z,101096.52
2019-03-19T00:57:10.389Z,101089.45
2019-03-19T00:59:38.837Z,101097.44
2019-03-19T01:02:26.643Z,101103.89
2019-03-19T01:04:55.092Z,101108.84
2019-03-19T01:07:23.613Z,101111.63
2019-03-19T01:09:52.098Z,101104.45
2019-03-19T01:12:21.004Z,101099.41
2019-03-19T01:14:49.453Z,101101.82
2019-03-19T01:17:18.013Z,101107.05
2019-03-19T01:19:46.462Z,101101.37
2019-03-19T01:22:14.909Z,101105.64
2019-03-19T01:24:43.422Z,101103.34
2019-03-19T01:27:11.850Z,101101.70
2019-03-19T01:29:40.302Z,101101.32
2019-03-19T01:32:08.799Z,101113.03
2019-03-19T01:34:37.246Z,101110.50
2019-03-19T01:37:05.714Z,101101.75
2019-03-19T01:39:34.273Z,101096.83
2019-03-19T01:42:02.716Z,101100.73
2019-03-19T01:44:31.236Z,101108.77
2019-03-19T01:46:59.757Z,101113.48
2019-03-19T01:49:28.213Z,101110.95
2019-03-19T01:51:56.667Z,101111.22
2019-03-19T01:54:25.180Z,101105.52
2019-03-19T01:56:53.623Z,101099.86
2019-03-19T01:59:22.077Z,101103.20
2019-03-19T02:01:50.566Z,101109.09
2019-03-19T02:04:19.008Z,101118.23
2019-03-19T02:06:47.460Z,101108.83
2019-03-19T02:11:49.885Z,101113.26
2019-03-19T02:14:18.321Z,101113.69
2019-03-19T02:19:20.679Z,101114.36
2019-03-19T02:24:23.581Z,101105.21
2019-03-19T02:29:25.915Z,101106.95
2019-03-19T02:31:54.362Z,101107.13
2019-03-19T02:34:22.851Z,101108.95
2019-03-19T02:36:51.350Z,101115.17
2019-03-19T02:39:19.744Z,101118.52
2019-03-19T02:41:48.302Z,101116.49
2019-03-19T02:44:16.756Z,101118.52
2019-03-19T02:46:45.208Z,101129.78
2019-03-19T02:51:48.099Z,101130.92
2019-03-19T02:54:35.905Z,101134.45
2019-03-19T02:57:04.450Z,101138.08
2019-03-19T02:59:32.897Z,101140.74
2019-03-19T03:02:01.392Z,101142.44
2019-03-19T03:04:29.839Z,101148.94
2019-03-19T03:06:58.356Z,101152.80
2019-03-19T03:09:26.861Z,101162.48
2019-03-19T03:11:55.314Z,101165.31
2019-03-19T03:14:23.768Z,101162.34
2019-03-19T03:16:52.330Z,101167.25
2019-03-19T03:19:20.784Z,101166.83
2019-03-19T03:21:49.241Z,101158.66
2019-03-19T03:24:18.014Z,101163.58
2019-03-19T03:26:48.609Z,101170.97
2019-03-19T03:29:35.891Z,101171.56
2019-03-19T03:32:23.681Z,101177.05
2019-03-19T03:37:45.853Z,101170.17
2019-03-19T03:40:54.221Z,101182.17
2019-03-19T03:43:22.671Z,101186.52
2019-03-19T03:45:51.122Z,101195.41
2019-03-19T03:50:53.937Z,101207.08
2019-03-19T03:53:22.423Z,101204.97
2019-03-19T03:55:50.880Z,101209.87
2019-03-19T03:58:19.339Z,101215.86
2019-03-19T04:03:41.138Z,101225.08
2019-03-19T04:06:28.938Z,101223.44
2019-03-19T04:08:57.388Z,101233.58
2019-03-19T04:11:25.862Z,101232.47
2019-03-19T04:13:54.328Z,101228.65
2019-03-19T04:16:22.780Z,101226.72
2019-03-19T04:19:10.484Z,101227.45
2019-03-19T04:21:38.942Z,101240.52
2019-03-19T04:24:07.392Z,101238.42
2019-03-19T04:26:55.064Z,101238.20
2019-03-19T04:29:23.584Z,101239.98
2019-03-19T04:31:52.034Z,101239.41
2019-03-19T04:34:20.542Z,101249.14
2019-03-19T04:36:49.087Z,101254.92
2019-03-19T04:39:17.549Z,101261.84
2019-03-19T04:41:46.056Z,101258.97
2019-03-19T04:44:14.508Z,101262.09
2019-03-19T04:46:42.964Z,101270.17
2019-03-19T04:49:11.448Z,101262.98
2019-03-19T04:51:39.901Z,101277.05
2019-03-19T04:54:27.783Z,101273.91
2019-03-19T04:56:56.241Z,101279.48
2019-03-19T04:59:24.692Z,101286.22
2019-03-19T05:02:12.426Z,101283.34
2019-03-19T05:05:00.067Z,101284.03
2019-03-19T05:07:28.562Z,101288.23
2019-03-19T05:09:57.016Z,101285.08
2019-03-19T05:12:25.529Z,101280.92
2019-03-19T05:14:53.959Z,101283.48
2019-03-19T05:17:22.412Z,101291.91
2019-03-19T05:19:50.855Z,101284.37
2019-03-19T05:22:19.345Z,101289.93
2019-03-19T05:25:07.706Z,101287.06
2019-03-19T05:30:50.622Z,101289.53
2019-03-19T05:35:53.314Z,101312.94
2019-03-19T05:38:21.778Z,101307.63
2019-03-19T05:40:50.277Z,101304.48
2019-03-19T05:43:18.733Z,101310.91
2019-03-19T05:46:06.546Z,101313.89
2019-03-19T05:48:34.999Z,101319.34
2019-03-19T05:51:22.758Z,101328.91
2019-03-19T05:53:51.211Z,101328.48
2019-03-19T05:56:19.673Z,101325.36
2019-03-19T05:58:48.166Z,101335.43
2019-03-19T06:01:35.747Z,101332.55
2019-03-19T06:06:58.561Z,101333.53
2019-03-19T06:14:51.728Z,101355.83
2019-03-19T06:17:20.181Z,101353.22
2019-03-19T06:19:48.671Z,101360.68
2019-03-19T06:22:17.120Z,101366.45
2019-03-19T06:24:45.574Z,101365.64
2019-03-19T06:27:14.053Z,101360.90
2019-03-19T06:29:42.500Z,101364.25
2019-03-19T06:32:10.954Z,101374.80
2019-03-19T06:34:39.434Z,101377.72
2019-03-19T06:37:07.890Z,101382.30
2019-03-19T06:39:36.337Z,101379.19
2019-03-19T06:42:24.406Z,101374.06
2019-03-19T06:45:12.098Z,101378.73
2019-03-19T06:47:40.586Z,101384.77
2019-03-19T06:50:28.435Z,101398.73
2019-03-19T06:52:56.931Z,101398.08
2019-03-19T06:55:25.372Z,101392.14
2019-03-19T07:00:46.991Z,101399.62
2019-03-19T07:03:15.447Z,101397.25
2019-03-19T07:05:43.937Z,101394.45
2019-03-19T07:08:31.708Z,101386.50
2019-03-19T07:11:00.190Z,101392.09
2019-03-19T07:13:47.829Z,101398.53
2019-03-19T07:16:16.314Z,101393.88
2019-03-19T07:18:44.763Z,101399.28
2019-03-19T07:21:13.209Z,101402.20
2019-03-19T07:23:41.702Z,101400.06
2019-03-19T07:26:10.161Z,101401.78
2019-03-19T07:28:38.619Z,101402.06
2019-03-19T07:31:07.102Z,101411.66
2019-03-19T07:33:35.557Z,101409.26
2019-03-19T07:36:06.195Z,101411.73
2019-03-19T07:38:53.610Z,101410.31
2019-03-19T07:41:41.249Z,101416.44
2019-03-19T07:44:09.735Z,101410.33
2019-03-19T07:46:38.186Z,101414.34
2019-03-19T07:49:06.634Z,101408.41
2019-03-19T07:51:54.323Z,101411.84
2019-03-19T07:54:22.776Z,101409.66
2019-03-19T07:56:51.227Z,101411.38
2019-03-19T07:59:19.717Z,101408.31
2019-03-19T08:01:48.180Z,101408.79
2019-03-19T08:04:16.621Z,101409.53
2019-03-19T08:07:04.356Z,101411.02
2019-03-19T08:09:32.897Z,101410.37
2019-03-19T08:12:01.329Z,101410.25
2019-03-19T08:14:29.821Z,101417.91
2019-03-19T08:16:58.275Z,101428.44
2019-03-19T08:19:26.728Z,101433.91
2019-03-19T08:24:29.318Z,101444.71
2019-03-19T08:26:57.776Z,101447.42
2019-03-19T08:29:26.287Z,101439.84
2019-03-19T08:32:14.054Z,101446.00
2019-03-19T08:34:42.536Z,101449.53
2019-03-19T08:37:10.985Z,101453.53
2019-03-19T08:42:33.165Z,101451.08
2019-03-19T08:47:35.458Z,101463.97
2019-03-19T08:50:43.905Z,101469.89
2019-03-19T08:53:12.357Z,101471.22
2019-03-19T08:56:01.160Z,101469.53
2019-03-19T08:58:30.406Z,101463.55
2019-03-19T09:00:58.856Z,101470.32
2019-03-19T09:03:27.351Z,101473.92
2019-03-19T09:05:55.802Z,101462.52
2019-03-19T09:08:24.267Z,101464.67
2019-03-19T09:10:52.754Z,101464.34
2019-03-19T09:13:40.460Z,101466.59
2019-03-19T09:16:08.949Z,101462.42
2019-03-19T09:18:37.407Z,101465.88
2019-03-19T09:21:05.869Z,101463.47
2019-03-19T09:26:08.039Z,101465.21
2019-03-19T09:28:55.714Z,101463.61
2019-03-19T09:31:24.312Z,101465.01
2019-03-19T09:33:52.768Z,101466.70
2019-03-19T09:36:40.534Z,101464.53
2019-03-19T09:39:28.309Z,101471.50
2019-03-19T09:44:30.823Z,101476.06
2019-03-19T09:46:59.289Z,101477.38
2019-03-19T09:52:02.021Z,101466.41
2019-03-19T09:57:23.907Z,101474.77
2019-03-19T09:59:52.393Z,101473.86
2019-03-19T10:02:20.852Z,101469.06
2019-03-19T10:04:49.296Z,101474.34
2019-03-19T10:07:17.781Z,101465.48
2019-03-19T10:09:46.229Z,101469.91
2019-03-19T10:12:14.701Z,101475.22
2019-03-19T10:14:43.196Z,101470.80
2019-03-19T10:17:30.829Z,101464.12
2019-03-19T10:19:59.308Z,101465.94
2019-03-19T10:22:27.772Z,101456.19
2019-03-19T10:28:03.085Z,101476.05
2019-03-19T10:30:50.861Z,101474.36
2019-03-19T10:33:38.815Z,101476.02
2019-03-19T10:36:07.374Z,101480.48
2019-03-19T10:38:35.796Z,101483.12
2019-03-19T10:41:04.391Z,101481.79
2019-03-19T10:43:32.842Z,101480.47
2019-03-19T10:46:20.510Z,101483.52
2019-03-19T10:49:08.178Z,101484.95
2019-03-19T10:54:10.236Z,101482.27
2019-03-19T10:56:39.079Z,101488.00
2019-03-19T10:59:08.898Z,101487.14
2019-03-19T11:01:37.353Z,101488.00
2019-03-19T11:04:05.875Z,101480.49
2019-03-19T11:06:34.369Z,101472.97
2019-03-19T11:14:25.732Z,101485.75
2019-03-19T11:20:45.618Z,101480.42
2019-03-19T11:23:14.931Z,101484.41
2019-03-19T11:25:53.950Z,101485.81
2019-03-19T11:28:13.927Z,101486.62
2019-03-19T11:30:43.755Z,101481.58
2019-03-19T11:33:31.454Z,101482.91
2019-03-19T11:36:19.140Z,101484.44
2019-03-19T11:38:47.657Z,101476.55
2019-03-19T11:41:16.110Z,101482.55
2019-03-19T11:46:18.228Z,101476.67
2019-03-19T11:51:20.640Z,101476.91
2019-03-19T11:53:49.163Z,101472.69
2019-03-19T11:56:17.614Z,101470.70
2019-03-19T11:58:46.067Z,101471.10
2019-03-19T12:01:34.131Z,101472.78
2019-03-19T12:04:21.699Z,101468.13
2019-03-19T12:06:50.199Z,101465.08
2019-03-19T12:09:18.646Z,101468.45
2019-03-19T12:11:47.106Z,101466.77
2019-03-19T12:14:15.675Z,101464.92
2019-03-19T12:16:44.127Z,101468.92
2019-03-19T12:19:12.590Z,101467.84
2019-03-19T12:24:15.031Z,101472.26
2019-03-19T12:26:43.482Z,101468.25
2019-03-19T12:29:31.182Z,101476.05
2019-03-19T12:31:59.707Z,101468.78
2019-03-19T12:34:47.470Z,101471.82
2019-03-19T12:37:15.926Z,101479.42
2019-03-19T12:39:44.379Z,101469.47
2019-03-19T12:44:47.386Z,101462.64
2019-03-19T12:47:15.841Z,101464.13
2019-03-19T12:52:18.897Z,101459.16
2019-03-19T12:57:21.678Z,101453.81
2019-03-19T12:59:50.130Z,101458.33
2019-03-19T13:02:18.625Z,101453.02
2019-03-19T13:05:06.269Z,101454.68
2019-03-19T13:07:34.753Z,101456.02
2019-03-19T13:10:43.138Z,101451.47
2019-03-19T13:15:46.063Z,101444.73
2019-03-19T13:18:14.552Z,101442.94
2019-03-19T13:23:52.537Z,101443.10
2019-03-19T13:26:21.001Z,101435.39
2019-03-19T13:28:49.469Z,101446.13
2019-03-19T13:31:17.961Z,101439.09
2019-03-19T13:33:46.419Z,101438.52
2019-03-19T13:36:14.883Z,101435.66
2019-03-19T13:41:17.234Z,101440.63
2019-03-19T13:44:04.835Z,101443.14
2019-03-19T13:46:33.287Z,101438.31
2019-03-19T13:49:01.737Z,101433.87
2019-03-19T13:51:30.277Z,101432.75
2019-03-19T13:53:58.806Z,101433.19
2019-03-19T13:56:27.269Z,101432.67
2019-03-19T14:01:30.207Z,101428.06
2019-03-19T14:03:58.665Z,101429.16
2019-03-19T14:06:27.215Z,101428.79
2019-03-19T14:11:52.444Z,101427.08
2019-03-19T14:14:20.899Z,101423.66
2019-03-19T14:17:29.322Z,101417.64
2019-03-19T14:19:57.796Z,101421.81
2019-03-19T14:22:26.246Z,101422.97
2019-03-19T14:27:29.162Z,101422.54
2019-03-19T14:29:57.650Z,101421.23
2019-03-19T14:32:26.112Z,101417.67
2019-03-19T14:34:54.565Z,101416.94
2019-03-19T14:37:23.064Z,101415.59
2019-03-19T14:39:51.515Z,101417.71
2019-03-19T14:42:39.333Z,101422.74
2019-03-19T14:45:47.702Z,101419.38
2019-03-19T14:48:16.195Z,101420.40
2019-03-19T14:51:03.979Z,101413.88
2019-03-19T14:56:26.241Z,101421.20
2019-03-19T14:58:54.764Z,101424.65
2019-03-19T15:01:23.216Z,101424.92
2019-03-19T15:03:51.693Z,101420.16
2019-03-19T15:06:20.186Z,101425.33
2019-03-19T15:08:48.665Z,101416.78
2019-03-19T15:11:17.113Z,101423.87
2019-03-19T15:16:19.553Z,101424.66
2019-03-19T15:18:48.004Z,101423.37
2019-03-19T15:21:16.524Z,101418.06
2019-03-19T15:23:44.973Z,101419.86
2019-03-19T15:26:13.427Z,101420.00
2019-03-19T15:28:41.922Z,101424.28
2019-03-19T15:31:30.247Z,101428.77
2019-03-19T15:36:33.863Z,101425.56
2019-03-19T15:44:43.622Z,101425.97
2019-03-19T15:47:12.123Z,101424.80
2019-03-19T15:49:40.605Z,101422.80
2019-03-19T15:52:09.132Z,101434.55
2019-03-19T15:54:37.615Z,101436.91
2019-03-19T15:57:06.135Z,101434.48
2019-03-19T15:59:34.588Z,101432.41
2019-03-19T16:02:03.067Z,101437.16
2019-03-19T16:04:31.522Z,101432.11
2019-03-19T16:06:59.979Z,101439.66
2019-03-19T16:09:28.495Z,101445.84
2019-03-19T16:11:56.947Z,101440.08
2019-03-19T16:14:25.501Z,101446.91
2019-03-19T16:19:27.874Z,101448.66
2019-03-19T16:21:56.335Z,101455.30
2019-03-19T16:24:24.821Z,101456.14
2019-03-19T16:26:53.338Z,101458.36
2019-03-19T16:29:21.796Z,101460.28
2019-03-19T16:31:51.199Z,101465.59
2019-03-19T16:34:21.528Z,101469.19
2019-03-19T16:36:50.065Z,101468.73
2019-03-19T16:39:18.587Z,101469.63
2019-03-19T16:41:47.060Z,101465.67
2019-03-19T16:44:15.517Z,101467.02
2019-03-19T16:46:44.258Z,101475.13
2019-03-19T16:49:12.792Z,101480.12
2019-03-19T16:51:41.328Z,101484.22
2019-03-19T16:54:09.978Z,101486.49
2019-03-19T16:56:38.425Z,101485.63
2019-03-19T16:59:06.888Z,101487.95
2019-03-19T17:01:35.378Z,101491.99
2019-03-19T17:04:04.026Z,101492.92
2019-03-19T17:06:32.497Z,101492.14
2019-03-19T17:09:01.059Z,101498.27
2019-03-19T17:11:29.518Z,101505.31
2019-03-19T17:13:57.970Z,101509.42
2019-03-19T17:16:28.192Z,101512.59
2019-03-19T17:18:56.675Z,101508.59
2019-03-19T17:21:25.094Z,101514.05
2019-03-19T17:23:53.623Z,101517.20
2019-03-19T17:26:22.100Z,101519.48
2019-03-19T17:28:50.549Z,101529.59
2019-03-19T17:31:19.135Z,101529.73
2019-03-19T17:33:47.604Z,101527.64
2019-03-19T17:36:16.046Z,101531.96
2019-03-19T17:38:44.531Z,101534.19
2019-03-19T17:41:12.985Z,101535.63
2019-03-19T17:43:41.426Z,101543.62
2019-03-19T17:46:10.001Z,101537.45
2019-03-19T17:48:38.450Z,101539.23
2019-03-19T17:51:06.994Z,101542.34
2019-03-19T17:53:35.546Z,101542.78
2019-03-19T17:56:04.172Z,101546.30
2019-03-19T17:58:32.641Z,101553.84
2019-03-19T18:01:01.226Z,101552.50
2019-03-19T18:03:29.673Z,101564.45
2019-03-19T18:05:58.122Z,101570.62
2019-03-19T18:08:26.729Z,101578.52
2019-03-19T18:10:55.178Z,101578.02
2019-03-19T18:13:23.699Z,101575.77
2019-03-19T18:15:52.211Z,101579.68
2019-03-19T18:18:20.669Z,101577.87
2019-03-19T18:20:49.184Z,101584.27
2019-03-19T18:23:17.809Z,101583.30
2019-03-19T18:25:46.233Z,101593.08
2019-03-19T18:28:14.679Z,101595.36
2019-03-19T18:30:43.505Z,101588.88
2019-03-19T18:33:11.961Z,101585.50
2019-03-19T18:35:40.409Z,101598.75
2019-03-19T18:38:09.063Z,101602.69
2019-03-19T18:40:37.516Z,101606.17
2019-03-19T18:43:06.108Z,101608.36
2019-03-19T18:45:34.701Z,101612.95
2019-03-19T18:48:03.161Z,101621.50
2019-03-19T18:50:31.690Z,101618.33
2019-03-19T18:53:00.376Z,101626.94
2019-03-19T18:55:28.822Z,101630.39
2019-03-19T18:57:57.275Z,101624.70
2019-03-19T19:00:25.791Z,101635.02
2019-03-19T19:02:54.237Z,101636.25
2019-03-19T19:05:24.088Z,101642.33
2019-03-19T19:07:52.627Z,101639.93
2019-03-19T19:10:21.726Z,101640.39
2019-03-19T19:12:50.630Z,101639.89
2019-03-19T19:15:25.552Z,101647.23
2019-03-19T19:17:54.078Z,101645.47
2019-03-19T19:20:22.628Z,101648.38
2019-03-19T19:22:51.249Z,101653.75
2019-03-19T19:25:21.812Z,101655.34
2019-03-19T19:27:50.335Z,101658.61
2019-03-19T19:30:20.952Z,101664.67
2019-03-19T19:33:00.450Z,101671.16
2019-03-19T19:35:19.872Z,101680.08
2019-03-19T19:37:48.447Z,101672.77
2019-03-19T19:40:17.742Z,101681.02
2019-03-19T19:42:46.337Z,101672.02
2019-03-19T19:45:17.093Z,101671.89
2019-03-19T19:47:45.783Z,101673.98
2019-03-19T19:50:23.859Z,101669.69
2019-03-19T19:52:52.324Z,101670.41
2019-03-19T19:55:20.775Z,101675.84
2019-03-19T19:57:49.329Z,101681.81
2019-03-19T20:00:19.888Z,101676.52
2019-03-19T20:02:48.502Z,101680.21
2019-03-19T20:05:17.241Z,101679.97
2019-03-19T20:07:45.984Z,101678.94
2019-03-19T20:10:20.126Z,101685.72
2019-03-19T20:12:48.689Z,101689.30
2019-03-19T20:15:17.479Z,101692.01
2019-03-19T20:17:45.994Z,101689.30
2019-03-19T20:20:23.178Z,101699.31
2019-03-19T20:22:51.631Z,101701.77
2019-03-19T20:25:20.183Z,101707.20
2019-03-19T20:27:48.675Z,101718.27
2019-03-19T20:30:27.320Z,101724.00
2019-03-19T20:32:55.872Z,101718.78
2019-03-19T20:35:24.456Z,101722.61
2019-03-19T20:37:52.975Z,101728.30
2019-03-19T20:40:21.533Z,101733.50
2019-03-19T20:42:50.050Z,101737.51
2019-03-19T20:45:23.941Z,101738.94
2019-03-19T20:47:52.650Z,101734.42
2019-03-19T20:50:38.219Z,101737.31
2019-03-19T20:53:07.323Z,101747.84
2019-03-19T20:55:35.880Z,101753.27
2019-03-19T20:58:04.782Z,101749.62
2019-03-19T21:00:33.487Z,101749.70
2019-03-19T21:03:01.941Z,101750.45
2019-03-19T21:05:30.392Z,101761.02
2019-03-19T21:07:59.031Z,101770.36
2019-03-19T21:10:27.614Z,101773.33
2019-03-19T21:12:56.069Z,101767.38
2019-03-19T21:15:27.239Z,101773.83
2019-03-19T21:17:55.823Z,101774.45
2019-03-19T21:20:24.434Z,101777.70
2019-03-19T21:22:53.017Z,101783.85
2019-03-19T21:25:21.705Z,101784.85
2019-03-19T21:27:50.296Z,101793.50
2019-03-19T21:30:21.302Z,101795.23
2019-03-19T21:32:49.885Z,101795.63
2019-03-19T21:35:23.013Z,101796.66
2019-03-19T21:37:52.076Z,101798.11
2019-03-19T21:40:20.586Z,101791.58
2019-03-19T21:42:49.201Z,101791.68
2019-03-19T21:45:19.034Z,101801.09
2019-03-19T21:47:47.548Z,101803.44
2019-03-19T21:50:20.078Z,101804.62
2019-03-19T21:53:28.643Z,101801.92
2019-03-19T21:56:16.419Z,101800.48
2019-03-19T22:01:18.803Z,101812.94
2019-03-19T22:04:27.209Z,101809.85
2019-03-19T22:06:55.654Z,101816.50
2019-03-19T22:09:24.111Z,101806.42
2019-03-19T22:11:52.628Z,101815.34
2019-03-19T22:14:21.078Z,101812.77
2019-03-19T22:16:49.701Z,101817.28
2019-03-19T22:19:18.250Z,101818.89
2019-03-19T22:21:46.698Z,101816.69
2019-03-19T22:24:15.145Z,101817.77
2019-03-19T22:26:43.663Z,101819.73
2019-03-19T22:29:12.825Z,101818.30
2019-03-19T22:31:41.406Z,101822.05
2019-03-19T22:34:14.170Z,101826.41
2019-03-19T22:36:40.194Z,101820.48
2019-03-19T22:39:09.393Z,101823.09
2019-03-19T22:41:37.962Z,101827.84
2019-03-19T22:44:06.477Z,101838.98
2019-03-19T22:46:34.993Z,101837.44
2019-03-19T22:49:03.611Z,101844.73
2019-03-19T22:51:32.048Z,101842.27
2019-03-19T22:54:00.509Z,101848.98
2019-03-19T22:56:28.996Z,101853.28
2019-03-19T22:58:57.445Z,101856.09
2019-03-19T23:01:25.982Z,101858.58
2019-03-19T23:03:54.553Z,101856.47
2019-03-19T23:06:23.007Z,101857.45
2019-03-19T23:08:51.531Z,101854.74
2019-03-19T23:11:20.025Z,101860.77
2019-03-19T23:13:48.833Z,101865.69
2019-03-19T23:16:17.422Z,101873.86
2019-03-19T23:18:45.905Z,101884.30
2019-03-19T23:21:14.497Z,101879.11
2019-03-19T23:23:42.942Z,101879.05
2019-03-19T23:26:11.551Z,101880.56
2019-03-19T23:28:40.002Z,101882.84
2019-03-19T23:31:08.450Z,101890.17
2019-03-19T23:33:36.936Z,101891.14
2019-03-19T23:36:05.517Z,101896.72
2019-03-19T23:38:34.830Z,101887.95
2019-03-19T23:41:03.315Z,101895.87
2019-03-19T23:43:31.902Z,101892.79
2019-03-19T23:46:00.433Z,101886.42
2019-03-19T23:48:29.010Z,101884.79
2019-03-19T23:50:57.462Z,101893.95
2019-03-19T23:53:25.977Z,101889.12
2019-03-19T23:55:54.478Z,101887.91
2019-03-19T23:58:22.931Z,101888.96
